sensor_id;sensor_type;location;lat;lon;timestamp;pressure;altitude;pressure_sealevel;temperature;humidity
58385;BME280;44185;47.844;8.966;2023-03-20T00:02:17;96430.88;;;5.86;100.00
58385;BME280;44185;47.844;8.966;2023-03-20T00:04:42;96421.22;;;5.86;100.00
58385;BME280;44185;47.844;8.966;2023-03-20T00:07:08;96429.28;;;5.83;100.00
58385;BME280;44185;47.844;8.966;2023-03-20T00:09:35;96431.19;;;5.81;100.00
58385;BME280;44185;47.844;8.966;2023-03-20T00:12:00;96428.25;;;5.86;100.00
58385;BME280;44185;47.844;8.966;2023-03-20T00:14:26;96436.44;;;5.81;100.00
58385;BME280;44185;47.844;8.966;2023-03-20T00:16:52;96432.00;;;5.82;100.00
58385;BME280;44185;47.844;8.966;2023-03-20T00:19:18;96435.28;;;5.85;100.00
58385;BME280;44185;47.844;8.966;2023-03-20T00:21:45;96433.84;;;5.94;100.00
58385;BME280;44185;47.844;8.966;2023-03-20T00:24:10;96432.16;;;5.93;100.00
58385;BME280;44185;47.844;8.966;2023-03-20T00:26:38;96431.22;;;5.94;100.00
58385;BME280;44185;47.844;8.966;2023-03-20T00:29:05;96429.53;;;5.93;100.00
58385;BME280;44185;47.844;8.966;2023-03-20T00:31:34;96434.78;;;5.93;100.00
58385;BME280;44185;47.844;8.966;2023-03-20T00:34:01;96434.06;;;5.91;100.00
58385;BME280;44185;47.844;8.966;2023-03-20T00:36:27;96434.69;;;5.95;100.00
58385;BME280;44185;47.844;8.966;2023-03-20T00:38:53;96436.19;;;5.99;100.00
58385;BME280;44185;47.844;8.966;2023-03-20T00:41:22;96425.56;;;6.00;100.00
58385;BME280;44185;47.844;8.966;2023-03-20T00:43:51;96427.16;;;6.03;100.00
58385;BME280;44185;47.844;8.966;2023-03-20T00:46:18;96426.41;;;6.01;100.00
58385;BME280;44185;47.844;8.966;2023-03-20T00:48:44;96428.00;;;6.04;100.00
58385;BME280;44185;47.844;8.966;2023-03-20T00:51:10;96420.31;;;6.00;100.00
58385;BME280;44185;47.844;8.966;2023-03-20T00:53:35;96418.34;;;6.04;100.00
58385;BME280;44185;47.844;8.966;2023-03-20T00:56:01;96421.16;;;6.01;100.00
58385;BME280;44185;47.844;8.966;2023-03-20T00:58:27;96424.28;;;5.93;100.00
58385;BME280;44185;47.844;8.966;2023-03-20T01:00:54;96421.84;;;5.90;100.00
58385;BME280;44185;47.844;8.966;2023-03-20T01:03:22;96425.16;;;5.79;100.00
58385;BME280;44185;47.844;8.966;2023-03-20T01:05:50;96429.78;;;5.75;100.00
58385;BME280;44185;47.844;8.966;2023-03-20T01:08:17;96423.50;;;5.63;100.00
58385;BME280;44185;47.844;8.966;2023-03-20T01:10:44;96427.56;;;5.54;100.00
58385;BME280;44185;47.844;8.966;2023-03-20T01:13:16;96423.00;;;5.43;100.00
58385;BME280;44185;47.844;8.966;2023-03-20T01:15:43;96431.16;;;5.39;100.00
58385;BME280;44185;47.844;8.966;2023-03-20T01:18:11;96437.59;;;5.18;100.00
58385;BME280;44185;47.844;8.966;2023-03-20T01:20:37;96436.75;;;5.18;100.00
58385;BME280;44185;47.844;8.966;2023-03-20T01:23:02;96427.97;;;5.19;100.00
58385;BME280;44185;47.844;8.966;2023-03-20T01:25:27;96438.00;;;5.27;100.00
58385;BME280;44185;47.844;8.966;2023-03-20T01:27:53;96431.97;;;5.10;100.00
58385;BME280;44185;47.844;8.966;2023-03-20T01:30:21;96435.28;;;5.14;100.00
58385;BME280;44185;47.844;8.966;2023-03-20T01:32:47;96428.78;;;5.05;100.00
58385;BME280;44185;47.844;8.966;2023-03-20T01:35:16;96433.84;;;5.08;100.00
58385;BME280;44185;47.844;8.966;2023-03-20T01:37:42;96438.75;;;5.14;100.00
58385;BME280;44185;47.844;8.966;2023-03-20T01:40:15;96441.91;;;5.05;100.00
58385;BME280;44185;47.844;8.966;2023-03-20T01:42:43;96440.97;;;5.06;100.00
58385;BME280;44185;47.844;8.966;2023-03-20T01:45:14;96441.53;;;4.96;100.00
58385;BME280;44185;47.844;8.966;2023-03-20T01:47:40;96436.38;;;4.80;100.00
58385;BME280;44185;47.844;8.966;2023-03-20T01:50:29;96436.56;;;4.92;100.00
58385;BME280;44185;47.844;8.966;2023-03-20T01:53:01;96434.59;;;4.95;100.00
58385;BME280;44185;47.844;8.966;2023-03-20T01:55:28;96430.84;;;4.99;100.00
58385;BME280;44185;47.844;8.966;2023-03-20T01:57:55;96431.53;;;5.03;100.00
58385;BME280;44185;47.844;8.966;2023-03-20T02:00:22;96431.06;;;5.11;100.00
58385;BME280;44185;47.844;8.966;2023-03-20T02:02:47;96431.63;;;5.16;100.00
58385;BME280;44185;47.844;8.966;2023-03-20T02:05:15;96432.81;;;5.10;100.00
58385;BME280;44185;47.844;8.966;2023-03-20T02:07:46;96429.72;;;5.18;100.00
58385;BME280;44185;47.844;8.966;2023-03-20T02:10:15;96432.28;;;5.20;100.00
58385;BME280;44185;47.844;8.966;2023-03-20T02:12:43;96434.44;;;5.28;100.00
58385;BME280;44185;47.844;8.966;2023-03-20T02:15:10;96436.78;;;5.32;100.00
58385;BME280;44185;47.844;8.966;2023-03-20T02:17:36;96435.91;;;5.32;100.00
58385;BME280;44185;47.844;8.966;2023-03-20T02:20:07;96430.97;;;5.27;100.00
58385;BME280;44185;47.844;8.966;2023-03-20T02:29:10;96436.66;;;5.34;100.00
58385;BME280;44185;47.844;8.966;2023-03-20T02:40:32;96450.72;;;5.18;100.00
58385;BME280;44185;47.844;8.966;2023-03-20T02:43:07;96453.72;;;5.27;100.00
58385;BME280;44185;47.844;8.966;2023-03-20T02:45:43;96452.03;;;5.26;100.00
58385;BME280;44185;47.844;8.966;2023-03-20T02:48:15;96447.19;;;5.19;100.00
58385;BME280;44185;47.844;8.966;2023-03-20T02:50:49;96452.31;;;5.21;100.00
58385;BME280;44185;47.844;8.966;2023-03-20T02:53:30;96459.16;;;5.23;100.00
58385;BME280;44185;47.844;8.966;2023-03-20T02:56:06;96452.97;;;5.25;100.00
58385;BME280;44185;47.844;8.966;2023-03-20T02:58:38;96455.22;;;5.31;100.00
58385;BME280;44185;47.844;8.966;2023-03-20T03:01:09;96456.63;;;5.37;100.00
58385;BME280;44185;47.844;8.966;2023-03-20T03:03:42;96456.06;;;5.31;100.00
58385;BME280;44185;47.844;8.966;2023-03-20T03:06:14;96464.91;;;5.30;100.00
58385;BME280;44185;47.844;8.966;2023-03-20T03:08:47;96450.81;;;5.31;100.00
58385;BME280;44185;47.844;8.966;2023-03-20T03:11:14;96454.41;;;5.30;100.00
58385;BME280;44185;47.844;8.966;2023-03-20T03:13:44;96456.91;;;5.32;100.00
58385;BME280;44185;47.844;8.966;2023-03-20T03:16:13;96452.03;;;5.26;100.00
58385;BME280;44185;47.844;8.966;2023-03-20T03:18:41;96466.66;;;5.30;100.00
58385;BME280;44185;47.844;8.966;2023-03-20T03:21:09;96466.66;;;5.30;100.00
58385;BME280;44185;47.844;8.966;2023-03-20T03:23:39;96461.13;;;5.34;100.00
58385;BME280;44185;47.844;8.966;2023-03-20T03:26:10;96460.47;;;5.45;100.00
58385;BME280;44185;47.844;8.966;2023-03-20T03:28:39;96470.06;;;5.47;100.00
58385;BME280;44185;47.844;8.966;2023-03-20T03:31:10;96471.44;;;5.38;100.00
58385;BME280;44185;47.844;8.966;2023-03-20T03:33:38;96465.91;;;5.42;100.00
58385;BME280;44185;47.844;8.966;2023-03-20T03:36:09;96473.78;;;5.42;100.00
58385;BME280;44185;47.844;8.966;2023-03-20T03:38:41;96469.28;;;5.44;100.00
58385;BME280;44185;47.844;8.966;2023-03-20T03:41:25;96473.31;;;5.36;100.00
58385;BME280;44185;47.844;8.966;2023-03-20T03:43:57;96470.03;;;5.32;100.00
58385;BME280;44185;47.844;8.966;2023-03-20T03:46:29;96478.56;;;5.36;100.00
58385;BME280;44185;47.844;8.966;2023-03-20T03:48:59;96482.13;;;5.34;100.00
58385;BME280;44185;47.844;8.966;2023-03-20T03:51:28;96490.38;;;5.43;100.00
58385;BME280;44185;47.844;8.966;2023-03-20T03:53:59;96495.75;;;5.41;100.00
58385;BME280;44185;47.844;8.966;2023-03-20T03:56:26;96486.44;;;5.36;100.00
58385;BME280;44185;47.844;8.966;2023-03-20T03:58:55;96493.66;;;5.32;100.00
58385;BME280;44185;47.844;8.966;2023-03-20T04:01:23;96489.25;;;5.32;100.00
58385;BME280;44185;47.844;8.966;2023-03-20T04:03:53;96493.38;;;5.37;100.00
58385;BME280;44185;47.844;8.966;2023-03-20T04:06:21;96490.75;;;5.37;100.00
58385;BME280;44185;47.844;8.966;2023-03-20T04:08:46;96497.78;;;5.36;100.00
58385;BME280;44185;47.844;8.966;2023-03-20T04:11:14;96495.16;;;5.36;100.00
58385;BME280;44185;47.844;8.966;2023-03-20T04:13:42;96500.03;;;5.42;100.00
58385;BME280;44185;47.844;8.966;2023-03-20T04:16:11;96506.03;;;5.44;100.00
58385;BME280;44185;47.844;8.966;2023-03-20T04:18:37;96500.69;;;5.46;100.00
58385;BME280;44185;47.844;8.966;2023-03-20T04:21:03;96492.72;;;5.48;100.00
58385;BME280;44185;47.844;8.966;2023-03-20T04:23:28;96487.38;;;5.49;100.00
58385;BME280;44185;47.844;8.966;2023-03-20T04:25:54;96493.38;;;5.51;100.00
58385;BME280;44185;47.844;8.966;2023-03-20T04:28:19;96497.59;;;5.54;100.00
58385;BME280;44185;47.844;8.966;2023-03-20T04:30:52;96511.09;;;5.62;100.00
58385;BME280;44185;47.844;8.966;2023-03-20T04:33:17;96505.56;;;5.67;100.00
58385;BME280;44185;47.844;8.966;2023-03-20T04:35:42;96512.78;;;5.63;100.00
58385;BME280;44185;47.844;8.966;2023-03-20T04:38:08;96497.75;;;5.65;100.00
58385;BME280;44185;47.844;8.966;2023-03-20T04:40:34;96511.94;;;5.63;100.00
58385;BME280;44185;47.844;8.966;2023-03-20T04:42:59;96507.63;;;5.62;100.00
58385;BME280;44185;47.844;8.966;2023-03-20T04:45:24;96495.34;;;5.62;100.00
58385;BME280;44185;47.844;8.966;2023-03-20T04:47:51;96503.41;;;5.59;100.00
58385;BME280;44185;47.844;8.966;2023-03-20T04:50:17;96499.94;;;5.59;100.00
58385;BME280;44185;47.844;8.966;2023-03-20T04:52:42;96493.09;;;5.56;100.00
58385;BME280;44185;47.844;8.966;2023-03-20T04:55:08;96499.00;;;5.60;100.00
58385;BME280;44185;47.844;8.966;2023-03-20T04:57:34;96503.88;;;5.66;100.00
58385;BME280;44185;47.844;8.966;2023-03-20T04:59:59;96501.81;;;5.56;100.00
58385;BME280;44185;47.844;8.966;2023-03-20T05:02:25;96495.44;;;5.61;100.00
58385;BME280;44185;47.844;8.966;2023-03-20T05:04:51;96495.53;;;5.59;100.00
58385;BME280;44185;47.844;8.966;2023-03-20T05:07:17;96487.66;;;5.59;100.00
58385;BME280;44185;47.844;8.966;2023-03-20T05:09:42;96491.88;;;5.62;100.00
58385;BME280;44185;47.844;8.966;2023-03-20T05:12:11;96492.25;;;5.55;100.00
58385;BME280;44185;47.844;8.966;2023-03-20T05:14:37;96489.34;;;5.45;100.00
58385;BME280;44185;47.844;8.966;2023-03-20T05:17:02;96494.50;;;5.47;100.00
58385;BME280;44185;47.844;8.966;2023-03-20T05:19:28;96488.41;;;5.47;100.00
58385;BME280;44185;47.844;8.966;2023-03-20T05:21:55;96497.97;;;5.48;100.00
58385;BME280;44185;47.844;8.966;2023-03-20T05:24:20;96502.56;;;5.44;100.00
58385;BME280;44185;47.844;8.966;2023-03-20T05:26:46;96493.19;;;5.40;100.00
58385;BME280;44185;47.844;8.966;2023-03-20T05:29:11;96499.28;;;5.40;100.00
58385;BME280;44185;47.844;8.966;2023-03-20T05:31:37;96502.47;;;5.45;100.00
58385;BME280;44185;47.844;8.966;2023-03-20T05:34:02;96500.41;;;5.51;100.00
58385;BME280;44185;47.844;8.966;2023-03-20T05:36:28;96509.22;;;5.50;100.00
58385;BME280;44185;47.844;8.966;2023-03-20T05:38:55;96513.72;;;5.48;100.00
58385;BME280;44185;47.844;8.966;2023-03-20T05:41:20;96516.25;;;5.49;100.00
58385;BME280;44185;47.844;8.966;2023-03-20T05:43:45;96525.72;;;5.52;100.00
58385;BME280;44185;47.844;8.966;2023-03-20T05:46:11;96528.53;;;5.49;100.00
58385;BME280;44185;47.844;8.966;2023-03-20T05:48:36;96530.03;;;5.38;100.00
58385;BME280;44185;47.844;8.966;2023-03-20T05:51:02;96543.72;;;5.43;100.00
58385;BME280;44185;47.844;8.966;2023-03-20T05:53:28;96538.38;;;5.45;100.00
58385;BME280;44185;47.844;8.966;2023-03-20T05:55:54;96541.94;;;5.44;100.00
58385;BME280;44185;47.844;8.966;2023-03-20T05:58:20;96539.22;;;5.45;100.00
58385;BME280;44185;47.844;8.966;2023-03-20T06:00:45;96538.84;;;5.52;100.00
58385;BME280;44185;47.844;8.966;2023-03-20T06:03:11;96535.28;;;5.53;100.00
58385;BME280;44185;47.844;8.966;2023-03-20T06:05:36;96530.50;;;5.60;100.00
58385;BME280;44185;47.844;8.966;2023-03-20T06:08:02;96526.19;;;5.59;100.00
58385;BME280;44185;47.844;8.966;2023-03-20T06:10:28;96524.13;;;5.64;100.00
58385;BME280;44185;47.844;8.966;2023-03-20T06:12:55;96529.19;;;5.67;100.00
58385;BME280;44185;47.844;8.966;2023-03-20T06:15:21;96532.28;;;5.74;100.00
58385;BME280;44185;47.844;8.966;2023-03-20T06:17:46;96527.69;;;5.77;100.00
58385;BME280;44185;47.844;8.966;2023-03-20T06:20:12;96533.38;;;5.84;100.00
58385;BME280;44185;47.844;8.966;2023-03-20T06:22:37;96542.84;;;5.87;100.00
58385;BME280;44185;47.844;8.966;2023-03-20T06:25:04;96543.41;;;5.92;100.00
58385;BME280;44185;47.844;8.966;2023-03-20T06:27:30;96542.84;;;5.87;100.00
58385;BME280;44185;47.844;8.966;2023-03-20T06:29:57;96547.63;;;5.95;100.00
58385;BME280;44185;47.844;8.966;2023-03-20T06:32:22;96553.66;;;5.97;100.00
58385;BME280;44185;47.844;8.966;2023-03-20T06:34:48;96556.19;;;5.98;100.00
58385;BME280;44185;47.844;8.966;2023-03-20T06:37:13;96552.50;;;6.01;100.00
58385;BME280;44185;47.844;8.966;2023-03-20T06:39:39;96558.31;;;6.06;100.00
58385;BME280;44185;47.844;8.966;2023-03-20T06:42:04;96548.59;;;6.08;100.00
58385;BME280;44185;47.844;8.966;2023-03-20T06:44:30;96551.13;;;6.10;100.00
58385;BME280;44185;47.844;8.966;2023-03-20T06:46:56;96560.50;;;6.14;100.00
58385;BME280;44185;47.844;8.966;2023-03-20T06:49:22;96567.84;;;6.09;100.00
58385;BME280;44185;47.844;8.966;2023-03-20T06:51:48;96567.13;;;6.05;100.00
58385;BME280;44185;47.844;8.966;2023-03-20T06:54:14;96570.72;;;6.04;100.00
58385;BME280;44185;47.844;8.966;2023-03-20T06:56:39;96566.13;;;6.08;100.00
58385;BME280;44185;47.844;8.966;2023-03-20T06:59:04;96572.59;;;6.17;100.00
58385;BME280;44185;47.844;8.966;2023-03-20T07:01:30;96566.22;;;6.21;100.00
58385;BME280;44185;47.844;8.966;2023-03-20T07:03:57;96570.22;;;6.27;100.00
58385;BME280;44185;47.844;8.966;2023-03-20T07:06:22;96577.84;;;6.31;100.00
58385;BME280;44185;47.844;8.966;2023-03-20T07:08:48;96571.16;;;6.40;100.00
58385;BME280;44185;47.844;8.966;2023-03-20T07:11:13;96578.19;;;6.40;100.00
58385;BME280;44185;47.844;8.966;2023-03-20T07:13:39;96579.69;;;6.44;100.00
58385;BME280;44185;47.844;8.966;2023-03-20T07:16:05;96573.94;;;6.52;100.00
58385;BME280;44185;47.844;8.966;2023-03-20T07:18:31;96568.72;;;6.37;100.00
58385;BME280;44185;47.844;8.966;2023-03-20T07:21:00;96564.47;;;6.49;100.00
58385;BME280;44185;47.844;8.966;2023-03-20T07:23:26;96564.72;;;6.59;100.00
58385;BME280;44185;47.844;8.966;2023-03-20T07:25:51;96572.22;;;6.65;100.00
58385;BME280;44185;47.844;8.966;2023-03-20T07:28:17;96556.38;;;6.52;100.00
58385;BME280;44185;47.844;8.966;2023-03-20T07:30:42;96564.16;;;6.54;100.00
58385;BME280;44185;47.844;8.966;2023-03-20T07:33:08;96563.81;;;6.45;100.00
58385;BME280;44185;47.844;8.966;2023-03-20T07:35:34;96562.53;;;6.66;100.00
58385;BME280;44185;47.844;8.966;2023-03-20T07:38:01;96554.34;;;6.71;100.00
58385;BME280;44185;47.844;8.966;2023-03-20T07:40:26;96552.78;;;6.81;100.00
58385;BME280;44185;47.844;8.966;2023-03-20T07:42:52;96564.09;;;6.96;100.00
58385;BME280;44185;47.844;8.966;2023-03-20T07:45:17;96565.34;;;7.04;100.00
58385;BME280;44185;47.844;8.966;2023-03-20T07:47:43;96566.97;;;7.19;100.00
58385;BME280;44185;47.844;8.966;2023-03-20T07:50:09;96568.88;;;7.30;100.00
58385;BME280;44185;47.844;8.966;2023-03-20T07:52:35;96568.88;;;7.43;100.00
58385;BME280;44185;47.844;8.966;2023-03-20T07:55:02;96565.53;;;7.41;100.00
58385;BME280;44185;47.844;8.966;2023-03-20T07:57:27;96558.16;;;7.60;100.00
58385;BME280;44185;47.844;8.966;2023-03-20T07:59:53;96565.31;;;7.71;100.00
58385;BME280;44185;47.844;8.966;2023-03-20T08:02:19;96574.06;;;7.84;100.00
58385;BME280;44185;47.844;8.966;2023-03-20T08:04:44;96588.28;;;7.82;100.00
58385;BME280;44185;47.844;8.966;2023-03-20T08:07:10;96588.38;;;7.54;100.00
58385;BME280;44185;47.844;8.966;2023-03-20T08:09:35;96588.50;;;7.52;100.00
58385;BME280;44185;47.844;8.966;2023-03-20T08:12:02;96585.13;;;7.50;100.00
58385;BME280;44185;47.844;8.966;2023-03-20T08:14:28;96590.94;;;7.55;100.00
58385;BME280;44185;47.844;8.966;2023-03-20T08:16:53;96580.78;;;7.49;100.00
58385;BME280;44185;47.844;8.966;2023-03-20T08:19:19;96585.97;;;7.51;100.00
58385;BME280;44185;47.844;8.966;2023-03-20T08:21:44;96591.34;;;7.62;100.00
58385;BME280;44185;47.844;8.966;2023-03-20T08:24:10;96585.66;;;7.82;100.00
58385;BME280;44185;47.844;8.966;2023-03-20T08:26:35;96596.84;;;7.85;100.00
58385;BME280;44185;47.844;8.966;2023-03-20T08:29:03;96594.06;;;7.87;100.00
58385;BME280;44185;47.844;8.966;2023-03-20T08:31:28;96591.56;;;7.98;100.00
58385;BME280;44185;47.844;8.966;2023-03-20T08:33:55;96590.28;;;8.04;100.00
58385;BME280;44185;47.844;8.966;2023-03-20T08:36:20;96592.69;;;7.94;100.00
58385;BME280;44185;47.844;8.966;2023-03-20T08:38:46;96594.25;;;8.10;100.00
58385;BME280;44185;47.844;8.966;2023-03-20T08:41:12;96601.19;;;8.24;100.00
58385;BME280;44185;47.844;8.966;2023-03-20T08:43:37;96597.16;;;8.31;100.00
58385;BME280;44185;47.844;8.966;2023-03-20T08:46:05;96597.34;;;8.41;100.00
58385;BME280;44185;47.844;8.966;2023-03-20T08:48:31;96601.97;;;8.51;100.00
58385;BME280;44185;47.844;8.966;2023-03-20T08:50:56;96599.44;;;8.62;100.00
58385;BME280;44185;47.844;8.966;2023-03-20T08:53:22;96597.47;;;8.40;100.00
58385;BME280;44185;47.844;8.966;2023-03-20T08:55:47;96598.63;;;8.49;100.00
58385;BME280;44185;47.844;8.966;2023-03-20T08:58:13;96605.09;;;8.18;100.00
58385;BME280;44185;47.844;8.966;2023-03-20T09:00:38;96597.81;;;8.35;100.00
58385;BME280;44185;47.844;8.966;2023-03-20T09:03:05;96599.38;;;8.38;100.00
58385;BME280;44185;47.844;8.966;2023-03-20T09:05:30;96600.41;;;8.48;100.00
58385;BME280;44185;47.844;8.966;2023-03-20T09:07:56;96598.56;;;8.75;100.00
58385;BME280;44185;47.844;8.966;2023-03-20T09:10:21;96600.84;;;8.79;100.00
58385;BME280;44185;47.844;8.966;2023-03-20T09:12:47;96596.06;;;8.85;100.00
58385;BME280;44185;47.844;8.966;2023-03-20T09:15:12;96596.50;;;9.03;100.00
58385;BME280;44185;47.844;8.966;2023-03-20T09:17:38;96601.19;;;9.36;100.00
58385;BME280;44185;47.844;8.966;2023-03-20T09:20:06;96593.13;;;9.37;100.00
58385;BME280;44185;47.844;8.966;2023-03-20T09:22:32;96594.50;;;9.54;100.00
58385;BME280;44185;47.844;8.966;2023-03-20T09:24:57;96591.78;;;9.67;100.00
58385;BME280;44185;47.844;8.966;2023-03-20T09:27:23;96590.59;;;9.83;100.00
58385;BME280;44185;47.844;8.966;2023-03-20T09:29:49;96594.41;;;9.67;100.00
58385;BME280;44185;47.844;8.966;2023-03-20T09:32:14;96592.63;;;9.79;100.00
58385;BME280;44185;47.844;8.966;2023-03-20T09:34:40;96593.66;;;9.54;100.00
58385;BME280;44185;47.844;8.966;2023-03-20T09:37:07;96596.69;;;9.72;100.00
58385;BME280;44185;47.844;8.966;2023-03-20T09:39:32;96598.63;;;9.70;100.00
58385;BME280;44185;47.844;8.966;2023-03-20T09:42:00;96597.22;;;10.00;100.00
58385;BME280;44185;47.844;8.966;2023-03-20T09:44:46;96591.81;;;10.14;93.69
58385;BME280;44185;47.844;8.966;2023-03-20T09:47:22;96588.28;;;10.24;89.85
58385;BME280;44185;47.844;8.966;2023-03-20T09:50:00;96584.47;;;10.29;90.35
58385;BME280;44185;47.844;8.966;2023-03-20T09:52:34;96580.97;;;10.40;90.97
58385;BME280;44185;47.844;8.966;2023-03-20T09:55:02;96587.56;;;10.45;89.43
58385;BME280;44185;47.844;8.966;2023-03-20T09:57:34;96587.28;;;10.49;85.80
58385;BME280;44185;47.844;8.966;2023-03-20T10:00:04;96586.00;;;10.43;88.01
58385;BME280;44185;47.844;8.966;2023-03-20T10:02:38;96588.06;;;10.28;93.33
58385;BME280;44185;47.844;8.966;2023-03-20T10:05:16;96596.94;;;10.50;90.02
58385;BME280;44185;47.844;8.966;2023-03-20T10:07:45;96593.84;;;10.56;86.85
58385;BME280;44185;47.844;8.966;2023-03-20T10:10:12;96598.50;;;10.41;83.78
58385;BME280;44185;47.844;8.966;2023-03-20T10:12:51;96593.34;;;10.28;83.53
58385;BME280;44185;47.844;8.966;2023-03-20T10:15:29;96591.53;;;10.28;86.65
58385;BME280;44185;47.844;8.966;2023-03-20T10:18:00;96586.72;;;10.22;82.02
58385;BME280;44185;47.844;8.966;2023-03-20T10:20:33;96588.28;;;10.24;80.12
58385;BME280;44185;47.844;8.966;2023-03-20T10:23:02;96590.94;;;10.36;78.71
58385;BME280;44185;47.844;8.966;2023-03-20T10:25:33;96580.59;;;10.33;77.84
58385;BME280;44185;47.844;8.966;2023-03-20T10:28:01;96577.09;;;10.44;78.53
58385;BME280;44185;47.844;8.966;2023-03-20T10:30:36;96578.66;;;10.58;77.87
58385;BME280;44185;47.844;8.966;2023-03-20T10:33:11;96576.94;;;10.80;78.36
58385;BME280;44185;47.844;8.966;2023-03-20T10:35:48;96577.78;;;11.02;77.22
58385;BME280;44185;47.844;8.966;2023-03-20T10:38:25;96574.28;;;11.01;73.88
58385;BME280;44185;47.844;8.966;2023-03-20T10:40:55;96570.00;;;11.00;74.81
58385;BME280;44185;47.844;8.966;2023-03-20T10:43:23;96569.72;;;10.71;71.66
58385;BME280;44185;47.844;8.966;2023-03-20T10:45:52;96564.03;;;10.87;72.15
58385;BME280;44185;47.844;8.966;2023-03-20T10:48:24;96570.59;;;10.60;69.95
58385;BME280;44185;47.844;8.966;2023-03-20T10:50:52;96568.44;;;10.42;70.28
58385;BME280;44185;47.844;8.966;2023-03-20T10:53:28;96561.09;;;10.57;71.23
58385;BME280;44185;47.844;8.966;2023-03-20T10:55:57;96556.19;;;11.18;75.20
58385;BME280;44185;47.844;8.966;2023-03-20T10:58:27;96552.38;;;11.54;70.15
58385;BME280;44185;47.844;8.966;2023-03-20T11:00:54;96555.00;;;11.75;70.31
58385;BME280;44185;47.844;8.966;2023-03-20T11:03:22;96557.47;;;11.98;69.07
58385;BME280;44185;47.844;8.966;2023-03-20T11:05:52;96560.28;;;12.07;67.79
58385;BME280;44185;47.844;8.966;2023-03-20T11:08:21;96560.78;;;12.22;67.83
58385;BME280;44185;47.844;8.966;2023-03-20T11:10:57;96572.41;;;11.99;66.69
58385;BME280;44185;47.844;8.966;2023-03-20T11:13:25;96575.13;;;11.56;66.71
58385;BME280;44185;47.844;8.966;2023-03-20T11:15:51;96568.59;;;11.39;66.89
58385;BME280;44185;47.844;8.966;2023-03-20T11:18:17;96572.09;;;11.07;70.34
58385;BME280;44185;47.844;8.966;2023-03-20T11:20:45;96570.72;;;11.24;67.77
58385;BME280;44185;47.844;8.966;2023-03-20T11:23:15;96577.44;;;11.50;68.58
58385;BME280;44185;47.844;8.966;2023-03-20T11:25:49;96572.97;;;11.50;69.00
58385;BME280;44185;47.844;8.966;2023-03-20T11:28:34;96578.66;;;11.67;68.58
58385;BME280;44185;47.844;8.966;2023-03-20T11:31:03;96574.31;;;11.66;68.25
58385;BME280;44185;47.844;8.966;2023-03-20T11:33:29;96571.03;;;11.52;67.59
58385;BME280;44185;47.844;8.966;2023-03-20T11:35:57;96571.56;;;11.67;68.25
58385;BME280;44185;47.844;8.966;2023-03-20T11:38:23;96568.72;;;11.59;66.68
58385;BME280;44185;47.844;8.966;2023-03-20T11:40:51;96568.06;;;11.45;66.69
58385;BME280;44185;47.844;8.966;2023-03-20T11:43:18;96569.31;;;11.20;68.08
58385;BME280;44185;47.844;8.966;2023-03-20T11:45:46;96567.16;;;11.14;68.03
58385;BME280;44185;47.844;8.966;2023-03-20T11:48:17;96562.97;;;11.32;69.21
58385;BME280;44185;47.844;8.966;2023-03-20T11:50:46;96566.38;;;11.23;68.76
58385;BME280;44185;47.844;8.966;2023-03-20T11:53:22;96569.94;;;11.33;71.28
58385;BME280;44185;47.844;8.966;2023-03-20T11:56:02;96567.28;;;11.33;69.19
58385;BME280;44185;47.844;8.966;2023-03-20T11:58:29;96563.88;;;11.21;69.98
58385;BME280;44185;47.844;8.966;2023-03-20T12:00:55;96563.47;;;11.26;70.94
58385;BME280;44185;47.844;8.966;2023-03-20T12:03:38;96564.06;;;11.08;70.67
58385;BME280;44185;47.844;8.966;2023-03-20T12:06:05;96559.81;;;11.17;71.57
58385;BME280;44185;47.844;8.966;2023-03-20T12:08:35;96562.56;;;11.16;71.56
58385;BME280;44185;47.844;8.966;2023-03-20T12:11:17;96551.41;;;11.12;70.04
58385;BME280;44185;47.844;8.966;2023-03-20T12:13:45;96548.13;;;11.20;69.96
58385;BME280;44185;47.844;8.966;2023-03-20T12:16:14;96547.13;;;11.21;69.98
58385;BME280;44185;47.844;8.966;2023-03-20T12:18:42;96548.94;;;11.42;69.38
58385;BME280;44185;47.844;8.966;2023-03-20T12:21:12;96552.78;;;11.49;68.21
58385;BME280;44185;47.844;8.966;2023-03-20T12:23:43;96546.41;;;11.62;71.81
58385;BME280;44185;47.844;8.966;2023-03-20T12:26:12;96540.31;;;11.71;71.95
58385;BME280;44185;47.844;8.966;2023-03-20T12:28:42;96539.88;;;11.66;70.28
58385;BME280;44185;47.844;8.966;2023-03-20T12:31:17;96542.19;;;11.81;70.41
58385;BME280;44185;47.844;8.966;2023-03-20T12:33:48;96531.88;;;11.87;68.96
58385;BME280;44185;47.844;8.966;2023-03-20T12:36:18;96532.13;;;11.84;67.70
58385;BME280;44185;47.844;8.966;2023-03-20T12:38:49;96535.72;;;11.73;68.64
58385;BME280;44185;47.844;8.966;2023-03-20T12:41:21;96527.47;;;11.66;68.90
58385;BME280;44185;47.844;8.966;2023-03-20T12:44:12;96530.59;;;11.82;68.79
58385;BME280;44185;47.844;8.966;2023-03-20T12:46:43;96536.88;;;11.81;65.74
58385;BME280;44185;47.844;8.966;2023-03-20T12:49:21;96535.03;;;11.81;67.55
58385;BME280;44185;47.844;8.966;2023-03-20T12:52:00;96525.47;;;11.90;67.80
58385;BME280;44185;47.844;8.966;2023-03-20T12:54:41;96525.66;;;11.67;65.21
58385;BME280;44185;47.844;8.966;2023-03-20T12:57:18;96523.91;;;11.87;68.00
58385;BME280;44185;47.844;8.966;2023-03-20T13:00:01;96518.38;;;12.00;67.89
58385;BME280;44185;47.844;8.966;2023-03-20T13:02:41;96518.97;;;12.04;67.53
58385;BME280;44185;47.844;8.966;2023-03-20T13:05:27;96519.38;;;11.99;66.62
58385;BME280;44185;47.844;8.966;2023-03-20T13:08:12;96523.25;;;11.95;66.79
58385;BME280;44185;47.844;8.966;2023-03-20T13:10:52;96519.59;;;12.18;67.22
58385;BME280;44185;47.844;8.966;2023-03-20T13:13:25;96519.50;;;12.08;64.22
58385;BME280;44185;47.844;8.966;2023-03-20T13:16:04;96511.06;;;12.14;63.95
58385;BME280;44185;47.844;8.966;2023-03-20T13:18:43;96506.06;;;12.31;65.58
58385;BME280;44185;47.844;8.966;2023-03-20T13:21:15;96509.59;;;12.41;65.00
58385;BME280;44185;47.844;8.966;2023-03-20T13:23:51;96506.94;;;12.41;65.15